Time;durP1;ratioP1;P1;durP2;ratioP2;P2;SDS_P1;SDS_P2;PMS_P1;PMS_P2;Temp;Humidity;BMP_temperature;BMP_pressure;BME280_temperature;BME280_humidity;BME280_pressure;Samples;Min_cycle;Max_cycle;Signal;HPM_P1;HPM_P2
2022/09/24 00:00:58;;;;;;;12.10;9.25;;;9.90;99.90;;;;;;5016288;28;20025;-84
2022/09/24 00:03:25;;;;;;;11.10;8.75;;;9.90;99.90;;;;;;5033884;28;20028;-83
2022/09/24 00:05:52;;;;;;;9.18;7.72;;;9.90;99.90;;;;;;5016300;28;20030;-83
2022/09/24 00:08:19;;;;;;;11.30;7.95;;;9.90;99.90;;;;;;5025862;28;20030;-84
2022/09/24 00:10:47;;;;;;;11.48;8.23;;;9.90;99.90;;;;;;5028776;28;20196;-83
2022/09/24 00:13:16;;;;;;;11.75;7.22;;;9.90;99.90;;;;;;5037886;28;20116;-83
2022/09/24 00:15:45;;;;;;;9.05;7.22;;;9.90;99.90;;;;;;5034409;28;20104;-84
2022/09/24 00:18:12;;;;;;;9.35;7.20;;;9.90;99.90;;;;;;5033103;28;20048;-82
2022/09/24 00:20:38;;;;;;;9.20;6.53;;;9.80;99.90;;;;;;5015515;28;20029;-84
2022/09/24 00:23:06;;;;;;;10.77;7.15;;;9.90;99.90;;;;;;5035503;28;20037;-84
2022/09/24 00:28:17;;;;;;;10.35;6.55;;;9.80;99.90;;;;;;5035140;28;20048;-83
2022/09/24 00:30:43;;;;;;;8.40;5.38;;;9.80;99.90;;;;;;5016878;28;20026;-81
2022/09/24 00:33:10;;;;;;;4.07;3.35;;;9.80;99.90;;;;;;5034455;28;20040;-81
2022/09/24 00:35:40;;;;;;;7.00;5.60;;;9.80;99.90;;;;;;5015100;28;20103;-82
2022/09/24 00:38:07;;;;;;;5.45;4.50;;;9.80;99.90;;;;;;5014803;28;20021;-81
2022/09/24 00:40:36;;;;;;;6.73;4.00;;;9.80;99.90;;;;;;5019199;28;20391;-81
2022/09/24 00:43:20;;;;;;;8.20;4.57;;;9.80;99.90;;;;;;5020471;28;20298;-82
2022/09/24 00:45:46;;;;;;;5.55;4.15;;;9.70;99.90;;;;;;5032209;28;20057;-82
2022/09/24 00:48:12;;;;;;;5.38;4.45;;;9.70;99.90;;;;;;5031532;28;20052;-82
2022/09/24 00:50:38;;;;;;;6.70;4.43;;;9.70;99.90;;;;;;5031995;28;20021;-83
2022/09/24 00:53:09;;;;;;;5.55;4.40;;;9.70;99.90;;;;;;5014440;28;20033;-83
2022/09/24 00:55:36;;;;;;;6.03;4.32;;;9.60;99.90;;;;;;5031827;28;20096;-81
2022/09/24 00:58:07;;;;;;;4.95;3.60;;;9.70;99.90;;;;;;5032139;28;20026;-82
2022/09/24 01:00:35;;;;;;;8.50;4.93;;;9.70;99.90;;;;;;5014439;28;20116;-82
2022/09/24 01:03:06;;;;;;;6.25;4.22;;;9.70;99.90;;;;;;5014500;28;20045;-82
2022/09/24 01:05:33;;;;;;;6.13;4.63;;;9.70;99.90;;;;;;5032449;28;20067;-82
2022/09/24 01:07:59;;;;;;;5.68;4.47;;;9.70;99.90;;;;;;5022896;28;20067;-82
2022/09/24 01:10:54;;;;;;;6.22;3.47;;;9.70;99.90;;;;;;5031970;28;20032;-83
2022/09/24 01:13:23;;;;;;;6.10;4.40;;;9.80;99.90;;;;;;5014315;28;20452;-82
2022/09/24 01:15:59;;;;;;;6.90;4.93;;;9.70;99.90;;;;;;5034103;28;20072;-83
2022/09/24 01:18:50;;;;;;;4.25;3.83;;;9.70;99.90;;;;;;5036185;28;20108;-82
2022/09/24 01:21:55;;;;;;;5.00;4.22;;;9.70;99.90;;;;;;5035728;28;20029;-81
2022/09/24 01:24:47;;;;;;;6.60;4.53;;;9.70;99.90;;;;;;5024185;28;20513;-82
2022/09/24 01:27:58;;;;;;;4.22;3.53;;;9.70;99.90;;;;;;5036178;28;20087;-82
2022/09/24 01:30:26;;;;;;;5.03;3.60;;;9.70;99.90;;;;;;4957257;29;20031;-81
2022/09/24 01:33:00;;;;;;;5.10;3.67;;;9.70;99.90;;;;;;4963342;29;20047;-81
2022/09/24 01:35:30;;;;;;;3.85;3.08;;;9.70;99.90;;;;;;4998170;28;20035;-82
2022/09/24 01:38:18;;;;;;;4.95;2.97;;;9.70;99.90;;;;;;5035891;28;20040;-82
2022/09/24 01:40:46;;;;;;;4.18;2.88;;;9.70;99.90;;;;;;5034510;28;20121;-82
2022/09/24 01:43:15;;;;;;;3.47;2.28;;;9.70;99.90;;;;;;5035557;28;20136;-82
2022/09/24 01:45:41;;;;;;;3.33;2.28;;;9.70;99.90;;;;;;5035843;28;20029;-81
2022/09/24 01:48:07;;;;;;;3.88;2.58;;;9.70;99.90;;;;;;5022527;28;20022;-81
2022/09/24 01:51:01;;;;;;;2.97;2.35;;;9.70;99.90;;;;;;5035465;28;20091;-83
2022/09/24 01:53:41;;;;;;;5.30;2.30;;;9.70;99.90;;;;;;5035486;28;20037;-81
2022/09/24 01:56:16;;;;;;;2.30;1.90;;;9.70;99.90;;;;;;5036910;28;20036;-82
2022/09/24 01:58:58;;;;;;;4.78;1.73;;;9.70;99.90;;;;;;5052550;28;20041;-82
2022/09/24 02:01:44;;;;;;;2.72;1.55;;;9.70;99.90;;;;;;5035946;28;20486;-81
2022/09/24 02:04:16;;;;;;;2.13;1.45;;;9.70;99.90;;;;;;5017150;28;20021;-83
2022/09/24 02:06:50;;;;;;;2.28;1.48;;;9.60;99.90;;;;;;5028759;28;20058;-81
2022/09/24 02:09:40;;;;;;;1.77;1.35;;;9.60;99.90;;;;;;5035251;28;20018;-83
2022/09/24 02:12:10;;;;;;;2.38;1.75;;;9.60;99.90;;;;;;5035313;28;20468;-82
2022/09/24 02:14:44;;;;;;;1.45;1.10;;;9.60;99.90;;;;;;5042023;28;20020;-82
2022/09/24 02:17:11;;;;;;;1.08;0.90;;;9.60;99.90;;;;;;5043705;28;20056;-83
2022/09/24 02:19:40;;;;;;;2.83;1.65;;;9.50;99.90;;;;;;5035424;28;20048;-81
2022/09/24 02:22:09;;;;;;;1.48;1.13;;;9.60;99.90;;;;;;5035451;28;20026;-83
2022/09/24 02:24:35;;;;;;;1.50;1.05;;;9.60;99.90;;;;;;5035006;28;20068;-83
2022/09/24 02:27:01;;;;;;;1.63;1.33;;;9.60;99.90;;;;;;5017176;28;20387;-83
2022/09/24 02:29:26;;;;;;;2.13;1.40;;;9.60;99.90;;;;;;5035274;28;20013;-85
2022/09/24 02:31:55;;;;;;;0.98;0.90;;;9.60;99.90;;;;;;5033506;28;20029;-83
2022/09/24 02:34:28;;;;;;;2.70;1.13;;;9.60;99.90;;;;;;5034755;28;20021;-82
2022/09/24 02:37:02;;;;;;;2.30;1.10;;;9.60;99.90;;;;;;5034526;28;20356;-83
2022/09/24 02:39:28;;;;;;;1.65;1.20;;;9.70;99.90;;;;;;5034713;28;20096;-83
2022/09/24 02:41:54;;;;;;;2.45;1.20;;;9.70;99.90;;;;;;5034629;28;20112;-83
2022/09/24 02:44:21;;;;;;;1.45;0.90;;;9.70;99.90;;;;;;5034518;28;20085;-84
2022/09/24 02:46:47;;;;;;;1.10;1.00;;;9.70;99.90;;;;;;5034763;28;20707;-82
2022/09/24 02:49:13;;;;;;;1.70;0.90;;;9.70;99.90;;;;;;5035063;28;20021;-82
2022/09/24 02:51:41;;;;;;;1.35;0.95;;;9.60;99.90;;;;;;5034323;28;20463;-82
2022/09/24 02:54:07;;;;;;;4.43;1.27;;;9.70;99.90;;;;;;5034607;28;20029;-82
2022/09/24 02:56:34;;;;;;;1.05;0.80;;;9.60;99.90;;;;;;5034522;28;20025;-81
2022/09/24 02:59:03;;;;;;;2.17;1.08;;;9.60;99.90;;;;;;5034286;28;20030;-82
2022/09/24 03:01:29;;;;;;;1.77;1.08;;;9.60;99.90;;;;;;5034245;28;20447;-82
2022/09/24 03:03:56;;;;;;;2.47;1.40;;;9.60;99.90;;;;;;5033905;28;20533;-82
2022/09/24 03:06:23;;;;;;;1.30;0.70;;;9.60;99.90;;;;;;5024313;28;20030;-82
2022/09/24 03:08:55;;;;;;;;;;;9.60;99.90;;;;;;5030994;28;20053;-83
2022/09/24 03:11:22;;;;;;;3.15;1.13;;;9.60;99.90;;;;;;5034449;28;19944;-83
2022/09/24 03:13:48;;;;;;;2.30;0.90;;;9.50;99.90;;;;;;5034269;28;20029;-83
2022/09/24 03:16:15;;;;;;;2.28;1.35;;;9.50;99.90;;;;;;5017657;28;20044;-81
2022/09/24 03:18:40;;;;;;;2.63;1.10;;;9.50;99.90;;;;;;5049941;28;20021;-81
2022/09/24 03:21:10;;;;;;;3.97;1.20;;;9.50;99.90;;;;;;5035097;28;20028;-82
2022/09/24 03:23:36;;;;;;;1.05;0.88;;;9.50;99.90;;;;;;5034065;28;20066;-83
2022/09/24 03:26:03;;;;;;;2.75;0.77;;;9.50;99.90;;;;;;5033810;28;20121;-82
2022/09/24 03:28:30;;;;;;;0.57;0.57;;;9.50;99.90;;;;;;5035009;28;20021;-82
2022/09/24 03:30:58;;;;;;;0.90;0.87;;;9.40;99.90;;;;;;5031406;28;20059;-84
2022/09/24 03:33:26;;;;;;;1.73;0.75;;;9.40;99.90;;;;;;5038448;28;20295;-82
2022/09/24 03:35:59;;;;;;;1.58;1.00;;;9.40;99.90;;;;;;5033584;28;20032;-84
2022/09/24 03:38:26;;;;;;;5.00;2.95;;;9.40;99.90;;;;;;5032914;28;20147;-83
2022/09/24 03:40:51;;;;;;;0.80;0.70;;;9.40;99.90;;;;;;5015937;28;20021;-85
2022/09/24 03:43:17;;;;;;;0.85;0.60;;;9.30;99.90;;;;;;5033226;28;20041;-82
2022/09/24 03:45:44;;;;;;;0.50;0.40;;;9.40;99.90;;;;;;5034078;28;20383;-84
2022/09/24 03:48:10;;;;;;;1.23;0.65;;;9.30;99.90;;;;;;5034638;28;20053;-81
2022/09/24 03:50:36;;;;;;;0.40;0.40;;;9.30;99.90;;;;;;5017460;28;20429;-84
2022/09/24 03:53:03;;;;;;;0.77;0.57;;;9.30;99.90;;;;;;5035235;28;20036;-84
2022/09/24 03:55:28;;;;;;;1.92;0.70;;;9.30;99.90;;;;;;5034514;28;20450;-83
2022/09/24 03:57:54;;;;;;;1.42;0.65;;;9.30;99.90;;;;;;5033803;28;20052;-83
2022/09/24 04:00:22;;;;;;;1.05;0.60;;;9.30;99.90;;;;;;5033393;28;20479;-83
2022/09/24 04:02:48;;;;;;;;;;;9.30;99.90;;;;;;5015987;28;20033;-84
2022/09/24 04:05:14;;;;;;;1.88;0.77;;;9.30;99.90;;;;;;5015141;28;19905;-83
2022/09/24 04:07:42;;;;;;;1.50;1.10;;;9.20;99.90;;;;;;5032831;28;20368;-81
2022/09/24 04:10:08;;;;;;;0.68;0.63;;;9.20;99.90;;;;;;5032912;28;20052;-83
2022/09/24 04:12:34;;;;;;;1.02;0.73;;;9.20;99.90;;;;;;5032986;28;20029;-82
2022/09/24 04:15:01;;;;;;;1.92;0.85;;;9.20;99.90;;;;;;5032954;28;20553;-81
2022/09/24 04:17:30;;;;;;;0.68;0.60;;;9.30;99.90;;;;;;5032314;28;20033;-83
2022/09/24 04:20:00;;;;;;;0.88;0.57;;;9.30;99.90;;;;;;5035543;28;20024;-82
2022/09/24 04:22:27;;;;;;;1.27;0.45;;;9.30;99.90;;;;;;5035397;28;20079;-82
2022/09/24 04:24:55;;;;;;;0.70;0.40;;;9.20;99.90;;;;;;5015241;28;20025;-83
2022/09/24 04:27:21;;;;;;;3.38;1.55;;;9.20;99.90;;;;;;5022860;28;20037;-83
2022/09/24 04:29:47;;;;;;;1.27;0.80;;;9.10;99.90;;;;;;5012382;28;20025;-83
2022/09/24 04:32:13;;;;;;;1.10;0.35;;;9.10;99.90;;;;;;5032854;28;20029;-82
2022/09/24 04:34:39;;;;;;;1.48;0.88;;;9.10;99.90;;;;;;5032461;28;20032;-82
2022/09/24 04:37:05;;;;;;;0.82;0.70;;;9.20;99.90;;;;;;5032653;28;20025;-84
2022/09/24 04:39:31;;;;;;;1.60;0.85;;;9.10;99.90;;;;;;5032432;28;20391;-82
2022/09/24 04:41:57;;;;;;;3.63;1.38;;;9.20;99.90;;;;;;5032628;28;20021;-83
2022/09/24 04:44:23;;;;;;;1.75;0.90;;;9.20;99.90;;;;;;5032266;28;20037;-83
2022/09/24 04:46:49;;;;;;;3.25;0.77;;;9.20;99.90;;;;;;5033048;28;20088;-83
2022/09/24 04:49:15;;;;;;;1.90;0.70;;;9.30;99.90;;;;;;5033988;28;20060;-85
2022/09/24 04:51:41;;;;;;;2.97;1.13;;;9.30;99.90;;;;;;5029962;28;20491;-84
2022/09/24 04:54:08;;;;;;;1.20;0.55;;;9.20;99.90;;;;;;5017805;28;20120;-83
2022/09/24 04:56:34;;;;;;;0.68;0.40;;;9.20;99.90;;;;;;5033833;28;20017;-83
2022/09/24 04:59:00;;;;;;;1.63;0.65;;;9.20;99.90;;;;;;5036962;28;20069;-83
2022/09/24 05:01:26;;;;;;;1.10;0.50;;;9.20;99.90;;;;;;5050616;28;20022;-82
2022/09/24 05:03:52;;;;;;;1.63;0.80;;;9.10;99.90;;;;;;5049258;28;20022;-82
2022/09/24 05:06:18;;;;;;;1.70;1.15;;;9.20;99.90;;;;;;5035569;28;20025;-82
2022/09/24 05:08:44;;;;;;;3.20;0.60;;;9.20;99.90;;;;;;5032517;28;20769;-82
2022/09/24 05:11:10;;;;;;;0.60;0.60;;;9.20;99.90;;;;;;5032915;28;20025;-84
2022/09/24 05:13:36;;;;;;;1.70;0.60;;;9.20;99.90;;;;;;5011544;28;20038;-84
2022/09/24 05:16:02;;;;;;;1.92;0.63;;;9.20;99.90;;;;;;5027835;28;20483;-83
2022/09/24 05:18:28;;;;;;;0.82;0.52;;;9.20;99.90;;;;;;5032208;28;20056;-83
2022/09/24 05:20:55;;;;;;;2.10;1.00;;;9.20;99.90;;;;;;5031822;28;20021;-85
2022/09/24 05:23:20;;;;;;;2.40;0.80;;;9.10;99.90;;;;;;5008956;28;20014;-82
2022/09/24 05:28:34;;;;;;;0.88;0.40;;;9.10;99.90;;;;;;5025293;28;20116;-82
2022/09/24 05:31:00;;;;;;;0.70;0.55;;;9.10;99.90;;;;;;5031943;28;20108;-83
2022/09/24 05:33:26;;;;;;;2.88;0.80;;;9.00;99.90;;;;;;5031666;28;20029;-83
2022/09/24 05:35:56;;;;;;;4.25;0.77;;;9.10;99.90;;;;;;5031714;28;20017;-83
2022/09/24 05:38:23;;;;;;;1.55;0.60;;;9.10;99.90;;;;;;5031813;28;20417;-84
2022/09/24 05:40:49;;;;;;;1.33;0.70;;;9.10;99.90;;;;;;5031600;28;20018;-82
2022/09/24 05:43:18;;;;;;;2.45;0.90;;;9.10;99.90;;;;;;5013745;28;20049;-83
2022/09/24 05:45:51;;;;;;;1.65;0.85;;;9.10;99.90;;;;;;5031705;28;20471;-84
2022/09/24 05:48:17;;;;;;;1.73;0.60;;;9.10;99.90;;;;;;5031633;28;20048;-82
2022/09/24 05:50:43;;;;;;;1.70;0.73;;;9.10;99.90;;;;;;5031557;28;20389;-83
2022/09/24 05:53:09;;;;;;;4.80;1.23;;;9.20;99.90;;;;;;5031860;28;20059;-83
2022/09/24 05:55:35;;;;;;;3.72;0.90;;;9.20;99.90;;;;;;5031209;28;20083;-84
2022/09/24 05:58:09;;;;;;;1.95;0.70;;;9.20;99.90;;;;;;5031624;28;20029;-84
2022/09/24 06:00:38;;;;;;;3.78;1.08;;;9.10;99.90;;;;;;5021264;28;20028;-83
2022/09/24 06:03:13;;;;;;;2.92;0.88;;;9.20;99.90;;;;;;5035405;28;20029;-83
2022/09/24 06:05:45;;;;;;;2.00;1.10;;;9.20;99.90;;;;;;5035612;28;20060;-84
2022/09/24 06:08:14;;;;;;;2.58;1.30;;;9.10;99.90;;;;;;5017411;28;20028;-84
2022/09/24 06:10:41;;;;;;;1.30;0.60;;;9.10;99.90;;;;;;5035305;28;20033;-83
2022/09/24 06:13:07;;;;;;;3.97;0.95;;;9.10;99.90;;;;;;5035526;28;20040;-83
2022/09/24 06:15:34;;;;;;;2.53;0.82;;;9.10;99.90;;;;;;5037426;28;20033;-83
2022/09/24 06:18:02;;;;;;;2.92;0.88;;;9.10;99.90;;;;;;5037621;28;20137;-83
2022/09/24 06:20:27;;;;;;;2.33;1.15;;;9.10;99.90;;;;;;5025879;28;20057;-85
2022/09/24 06:22:57;;;;;;;1.10;0.73;;;9.10;99.90;;;;;;5020384;28;20034;-85
2022/09/24 06:25:24;;;;;;;2.38;0.68;;;9.10;99.90;;;;;;5031258;28;20037;-84
2022/09/24 06:27:59;;;;;;;1.77;0.80;;;9.10;99.90;;;;;;5018316;28;20442;-85
2022/09/24 06:30:31;;;;;;;1.38;0.70;;;9.10;99.90;;;;;;5036182;28;20083;-84
2022/09/24 06:33:05;;;;;;;2.08;1.00;;;9.10;99.90;;;;;;5018184;28;20092;-86
2022/09/24 06:35:40;;;;;;;4.72;0.95;;;9.10;99.90;;;;;;5045520;28;20057;-84
2022/09/24 06:38:10;;;;;;;2.55;1.05;;;9.10;99.90;;;;;;5045259;28;20368;-86
2022/09/24 06:40:36;;;;;;;2.33;1.33;;;9.10;99.90;;;;;;5036091;28;20017;-85
2022/09/24 06:43:01;;;;;;;4.00;1.10;;;9.10;99.90;;;;;;5039528;28;20056;-84
2022/09/24 06:45:27;;;;;;;3.42;1.35;;;9.10;99.90;;;;;;5047350;28;20317;-84
2022/09/24 06:47:55;;;;;;;2.42;1.20;;;9.00;99.90;;;;;;5053140;28;20025;-86
2022/09/24 06:50:24;;;;;;;3.35;1.23;;;9.10;99.90;;;;;;5039649;28;20379;-83
2022/09/24 06:52:50;;;;;;;1.02;0.70;;;9.10;99.90;;;;;;5042449;28;20060;-85
2022/09/24 06:55:16;;;;;;;1.85;0.98;;;9.20;99.90;;;;;;5012728;28;20022;-84
2022/09/24 06:57:42;;;;;;;3.73;0.50;;;9.10;99.90;;;;;;5016598;28;20026;-85
2022/09/24 07:00:10;;;;;;;3.50;0.90;;;9.10;99.90;;;;;;5034609;28;20021;-84
2022/09/24 07:02:35;;;;;;;1.35;0.80;;;9.00;99.90;;;;;;5034768;28;20060;-84
2022/09/24 07:05:01;;;;;;;1.13;1.00;;;9.10;99.90;;;;;;5034596;28;20057;-84
2022/09/24 07:07:31;;;;;;;4.00;1.30;;;9.00;99.90;;;;;;5034779;28;20029;-85
2022/09/24 07:10:00;;;;;;;1.38;0.88;;;9.10;99.90;;;;;;5017894;28;20021;-82
2022/09/24 07:12:27;;;;;;;3.03;1.35;;;9.10;99.90;;;;;;5034068;28;20064;-85
2022/09/24 07:14:53;;;;;;;4.50;1.10;;;9.10;99.90;;;;;;5022090;28;20026;-85
2022/09/24 07:17:19;;;;;;;1.58;0.85;;;9.10;99.90;;;;;;5034963;28;20402;-84
2022/09/24 07:19:45;;;;;;;2.72;1.30;;;9.20;99.90;;;;;;5034647;28;20070;-85
2022/09/24 07:22:11;;;;;;;4.05;1.48;;;9.10;99.90;;;;;;5034467;28;20030;-85
2022/09/24 07:24:36;;;;;;;5.53;1.48;;;9.10;99.90;;;;;;5034843;28;20029;-86
2022/09/24 07:27:06;;;;;;;4.55;1.77;;;9.20;99.90;;;;;;5026472;28;20089;-86
2022/09/24 07:29:32;;;;;;;2.65;1.38;;;9.20;99.90;;;;;;5029937;28;20379;-85
2022/09/24 07:31:58;;;;;;;2.25;1.40;;;9.20;99.90;;;;;;5034671;28;20029;-84
2022/09/24 07:34:24;;;;;;;1.77;1.20;;;9.20;99.90;;;;;;5034825;28;20427;-83
2022/09/24 07:36:50;;;;;;;3.80;1.42;;;9.20;99.90;;;;;;5034534;28;20021;-83
2022/09/24 07:39:16;;;;;;;5.47;1.20;;;9.20;99.90;;;;;;5035082;28;20033;-86
2022/09/24 07:44:27;;;;;;;3.25;1.33;;;9.10;99.90;;;;;;5034370;28;20079;-86
2022/09/24 07:46:54;;;;;;;3.75;1.50;;;9.00;99.90;;;;;;5036259;28;20048;-83
2022/09/24 07:49:20;;;;;;;4.78;1.70;;;9.00;99.90;;;;;;5039901;28;20029;-83
2022/09/24 07:51:46;;;;;;;8.10;1.95;;;9.00;99.90;;;;;;5037861;28;20035;-85
2022/09/24 07:54:12;;;;;;;2.80;1.08;;;9.00;99.90;;;;;;5033553;28;20104;-85
2022/09/24 07:56:38;;;;;;;2.78;1.88;;;9.00;99.90;;;;;;5034049;28;20022;-84
2022/09/24 07:59:06;;;;;;;3.55;1.60;;;9.00;99.90;;;;;;5036447;28;20055;-85
2022/09/24 08:01:33;;;;;;;2.33;1.42;;;9.00;99.90;;;;;;5038247;28;20029;-85
2022/09/24 08:04:00;;;;;;;3.20;2.30;;;9.00;99.90;;;;;;5035859;28;20501;-84
2022/09/24 08:06:26;;;;;;;2.60;1.20;;;9.00;99.90;;;;;;5036763;28;20428;-86
2022/09/24 08:08:52;;;;;;;1.55;1.30;;;9.00;99.90;;;;;;5046147;28;20018;-84
2022/09/24 08:11:24;;;;;;;1.63;1.13;;;9.00;99.90;;;;;;5037855;28;20022;-86
2022/09/24 08:13:50;;;;;;;2.85;1.48;;;9.00;99.90;;;;;;5026506;28;20060;-84
2022/09/24 08:16:20;;;;;;;1.80;1.30;;;9.00;99.90;;;;;;5031749;28;20011;-87
2022/09/24 08:18:46;;;;;;;4.38;1.52;;;9.00;99.90;;;;;;5031083;28;20021;-84
2022/09/24 08:21:21;;;;;;;1.98;1.30;;;9.00;99.90;;;;;;5034187;28;20101;-84
2022/09/24 08:23:47;;;;;;;4.45;1.30;;;9.00;99.90;;;;;;5034944;28;20022;-81
2022/09/24 08:26:13;;;;;;;1.98;0.88;;;9.00;99.90;;;;;;5035303;28;20049;-80
2022/09/24 08:28:42;;;;;;;2.10;1.05;;;9.00;99.90;;;;;;5034755;28;20097;-82
2022/09/24 08:31:13;;;;;;;2.88;1.30;;;9.00;99.90;;;;;;5038836;28;20037;-82
2022/09/24 08:33:39;;;;;;;1.50;0.65;;;9.00;99.90;;;;;;5024430;28;20517;-83
2022/09/24 08:36:09;;;;;;;3.35;1.20;;;9.10;99.90;;;;;;5034841;28;20108;-84
2022/09/24 08:38:35;;;;;;;2.85;1.20;;;9.00;99.90;;;;;;5033171;28;20475;-81
2022/09/24 08:41:13;;;;;;;1.42;0.88;;;9.10;99.90;;;;;;5022270;28;20467;-83
2022/09/24 08:43:57;;;;;;;2.03;0.85;;;9.00;99.90;;;;;;5031337;28;20399;-81
2022/09/24 08:49:40;;;;;;;2.45;1.25;;;9.00;99.90;;;;;;5028551;28;20071;-81
2022/09/24 08:52:28;;;;;;;13.57;5.78;;;9.10;99.90;;;;;;5028827;28;20021;-88
2022/09/24 08:55:01;;;;;;;3.25;2.20;;;9.20;99.90;;;;;;5033782;28;20394;-84
2022/09/24 08:57:27;;;;;;;2.67;1.00;;;9.20;99.90;;;;;;5031135;28;20014;-82
2022/09/24 08:59:53;;;;;;;1.58;0.98;;;9.10;99.90;;;;;;5020653;28;20037;-84
2022/09/24 09:02:52;;;;;;;2.72;1.27;;;9.00;99.90;;;;;;5033051;28;20514;-89
2022/09/24 09:06:00;;;;;;;2.70;1.27;;;9.00;99.90;;;;;;5032993;28;20025;-87
2022/09/24 09:08:34;;;;;;;2.20;1.35;;;8.90;99.90;;;;;;4992313;28;20554;-87
2022/09/24 09:11:02;;;;;;;1.63;1.13;;;9.00;99.90;;;;;;5030682;28;20032;-89
2022/09/24 09:13:55;;;;;;;1.55;1.00;;;9.00;99.90;;;;;;5032872;28;20052;-81
2022/09/24 09:16:26;;;;;;;2.38;1.17;;;9.10;99.90;;;;;;5010301;28;20057;-82
2022/09/24 09:18:57;;;;;;;2.90;1.45;;;9.10;99.90;;;;;;5014331;28;20116;-84
2022/09/24 09:21:52;;;;;;;0.98;0.60;;;9.10;99.90;;;;;;5012217;28;20048;-83
2022/09/24 09:24:22;;;;;;;1.42;1.00;;;9.10;99.90;;;;;;5032749;28;20425;-83
2022/09/24 09:26:53;;;;;;;2.15;1.00;;;9.10;99.90;;;;;;5032599;28;20121;-81
2022/09/24 09:29:21;;;;;;;2.90;1.10;;;9.00;99.90;;;;;;5032746;28;20029;-84
2022/09/24 09:32:12;;;;;;;4.07;1.77;;;9.10;99.90;;;;;;5013948;28;20029;-81
2022/09/24 09:35:05;;;;;;;2.30;1.25;;;9.20;99.90;;;;;;5010860;28;20034;-82
2022/09/24 09:37:41;;;;;;;3.53;1.40;;;9.20;99.90;;;;;;5036022;28;20037;-83
2022/09/24 09:40:34;;;;;;;2.60;1.55;;;9.30;99.90;;;;;;5044761;28;20029;-84
2022/09/24 09:43:08;;;;;;;1.95;1.35;;;9.40;99.90;;;;;;5039779;28;20025;-85
2022/09/24 09:45:33;;;;;;;2.95;1.80;;;9.40;99.90;;;;;;5029046;28;20391;-83
2022/09/24 09:48:02;;;;;;;2.70;1.70;;;9.50;99.90;;;;;;5036263;28;20128;-82
2022/09/24 09:50:47;;;;;;;2.90;1.70;;;9.60;99.90;;;;;;5017589;28;20037;-84
2022/09/24 09:53:25;;;;;;;3.42;1.60;;;9.60;99.90;;;;;;5036463;28;20095;-83
2022/09/24 09:55:59;;;;;;;3.35;2.35;;;9.50;99.90;;;;;;5025378;28;20383;-84
2022/09/24 09:58:31;;;;;;;3.60;1.42;;;9.50;99.90;;;;;;5037962;28;20033;-85
2022/09/24 10:01:13;;;;;;;2.75;1.27;;;9.50;99.90;;;;;;5036417;28;20033;-84
2022/09/24 10:03:45;;;;;;;2.08;1.40;;;9.50;99.90;;;;;;5035570;28;20033;-86
2022/09/24 10:06:25;;;;;;;2.85;1.42;;;9.40;99.90;;;;;;5023461;28;20021;-85
2022/09/24 10:08:52;;;;;;;4.32;1.63;;;9.30;99.90;;;;;;5019641;28;20032;-84
2022/09/24 10:11:18;;;;;;;1.75;1.35;;;9.30;99.90;;;;;;5012189;28;20026;-85
2022/09/24 10:13:45;;;;;;;2.13;1.20;;;9.30;99.90;;;;;;5036021;28;20105;-84
2022/09/24 10:16:14;;;;;;;2.33;1.60;;;9.20;99.90;;;;;;5019335;28;20514;-84
2022/09/24 10:18:50;;;;;;;2.92;1.35;;;9.20;99.90;;;;;;5047104;28;20021;-85
2022/09/24 10:21:36;;;;;;;2.70;1.60;;;9.20;99.90;;;;;;5048879;28;20025;-83
2022/09/24 10:24:15;;;;;;;1.55;1.00;;;9.30;99.90;;;;;;5029080;28;20486;-83
2022/09/24 10:26:45;;;;;;;1.58;0.93;;;9.30;99.90;;;;;;5041316;28;20084;-86
2022/09/24 10:32:05;;;;;;;2.38;1.30;;;9.20;99.90;;;;;;5035692;28;20086;-83
2022/09/24 10:34:32;;;;;;;2.95;1.48;;;9.10;99.90;;;;;;5025988;28;20491;-90
2022/09/24 10:37:11;;;;;;;3.38;1.83;;;9.20;99.90;;;;;;5011761;28;20050;-82
2022/09/24 10:39:37;;;;;;;2.33;1.38;;;9.30;99.90;;;;;;5015806;28;20032;-82
2022/09/24 10:42:04;;;;;;;3.08;1.52;;;9.40;99.90;;;;;;5040569;28;20033;-87
2022/09/24 10:44:39;;;;;;;1.52;1.13;;;9.40;99.90;;;;;;5022026;28;20049;-84
2022/09/24 10:47:17;;;;;;;4.90;2.80;;;9.30;99.90;;;;;;5038652;28;20467;-90
2022/09/24 10:50:24;;;;;;;2.60;1.70;;;9.30;99.90;;;;;;5043121;28;20037;-92
2022/09/24 10:52:56;;;;;;;3.65;2.30;;;9.40;99.90;;;;;;5008150;28;20029;-85
2022/09/24 10:55:38;;;;;;;3.35;1.75;;;9.40;99.90;;;;;;5007316;28;20057;-86
2022/09/24 10:58:33;;;;;;;2.45;1.42;;;9.40;99.90;;;;;;5026736;28;20045;-85
2022/09/24 11:01:37;;;;;;;2.08;1.20;;;9.40;99.90;;;;;;5035879;28;20159;-86
2022/09/24 11:04:21;;;;;;;1.73;0.98;;;9.40;99.90;;;;;;5034673;28;20029;-86
2022/09/24 11:07:06;;;;;;;1.85;1.30;;;9.40;99.90;;;;;;5015726;28;20033;-88
2022/09/24 11:09:51;;;;;;;4.32;1.33;;;9.40;99.90;;;;;;5042278;28;20035;-86
2022/09/24 11:12:35;;;;;;;1.77;1.20;;;9.40;99.90;;;;;;5040635;28;20030;-86
2022/09/24 11:15:07;;;;;;;1.40;1.00;;;9.50;99.90;;;;;;5040873;28;20018;-86
2022/09/24 11:17:39;;;;;;;3.72;1.45;;;9.50;99.90;;;;;;5042852;28;20036;-86
2022/09/24 11:20:21;;;;;;;3.97;1.70;;;9.50;99.90;;;;;;5018727;28;20095;-86
2022/09/24 11:22:59;;;;;;;2.47;1.50;;;9.60;99.90;;;;;;5018527;28;20188;-87
2022/09/24 11:25:41;;;;;;;2.72;1.58;;;9.60;99.90;;;;;;5034826;28;20029;-88
2022/09/24 11:28:26;;;;;;;2.45;1.63;;;9.60;99.90;;;;;;5035492;28;20409;-84
2022/09/24 11:31:06;;;;;;;4.05;1.63;;;9.70;99.90;;;;;;5033809;28;20089;-82
2022/09/24 11:33:49;;;;;;;3.08;1.75;;;9.70;99.90;;;;;;5026007;28;20033;-83
2022/09/24 11:36:29;;;;;;;2.72;1.50;;;9.70;99.90;;;;;;5027389;28;20021;-84
2022/09/24 11:39:37;;;;;;;5.63;3.78;;;9.70;99.90;;;;;;5033873;28;20517;-81
2022/09/24 11:42:18;;;;;;;2.92;1.70;;;9.70;99.90;;;;;;4979847;28;20030;-82
2022/09/24 11:44:56;;;;;;;3.72;2.13;;;9.70;99.90;;;;;;5033207;28;20495;-83
2022/09/24 11:47:25;;;;;;;6.00;2.13;;;9.60;99.90;;;;;;5024708;28;20083;-83
2022/09/24 11:50:01;;;;;;;2.53;1.40;;;9.60;99.90;;;;;;5035358;28;20390;-82
2022/09/24 11:52:36;;;;;;;5.10;1.88;;;9.60;99.90;;;;;;5033366;28;20052;-83
2022/09/24 11:55:11;;;;;;;3.15;2.50;;;9.60;99.90;;;;;;5033534;28;20032;-83
2022/09/24 11:58:00;;;;;;;5.10;2.03;;;9.60;99.90;;;;;;5029572;28;20490;-81
2022/09/24 12:00:33;;;;;;;2.95;2.10;;;9.60;99.90;;;;;;5031704;28;20024;-83
2022/09/24 12:03:10;;;;;;;4.93;2.20;;;9.60;99.90;;;;;;5029833;28;20072;-82
2022/09/24 12:06:00;;;;;;;4.82;2.22;;;9.40;99.90;;;;;;5030790;28;20041;-84
2022/09/24 12:08:35;;;;;;;4.32;3.05;;;9.40;99.90;;;;;;5018551;28;20033;-84
2022/09/24 12:11:19;;;;;;;4.80;2.28;;;9.40;99.90;;;;;;5015700;28;20454;-82
2022/09/24 12:13:56;;;;;;;5.25;2.67;;;9.30;99.90;;;;;;5020020;28;20087;-80
2022/09/24 12:16:26;;;;;;;4.55;3.20;;;9.30;99.90;;;;;;5031731;28;20382;-83
2022/09/24 12:19:01;;;;;;;4.63;2.47;;;9.30;99.90;;;;;;5034302;28;20060;-81
2022/09/24 12:21:40;;;;;;;4.53;2.90;;;9.30;99.90;;;;;;5031339;28;20037;-81
2022/09/24 12:24:21;;;;;;;4.38;2.78;;;9.20;99.90;;;;;;5023361;28;20030;-82
2022/09/24 12:26:48;;;;;;;2.90;2.40;;;9.20;99.90;;;;;;5010093;28;20109;-83
2022/09/24 12:32:55;;;;;;;4.43;2.53;;;9.20;99.90;;;;;;5031929;28;20046;-85
2022/09/24 12:35:54;;;;;;;4.57;3.50;;;9.10;99.90;;;;;;5021838;28;20018;-85
2022/09/24 12:38:37;;;;;;;4.28;2.63;;;9.00;99.90;;;;;;5014780;28;20509;-85
2022/09/24 12:41:22;;;;;;;3.17;2.22;;;9.10;99.90;;;;;;5014446;28;20037;-83
2022/09/24 12:44:10;;;;;;;4.35;2.50;;;9.10;99.90;;;;;;5018624;28;20048;-80
2022/09/24 12:46:51;;;;;;;3.20;1.95;;;9.10;99.90;;;;;;5032377;28;20104;-82
2022/09/24 12:49:29;;;;;;;3.35;2.42;;;9.10;99.90;;;;;;5033552;28;20022;-83
2022/09/24 12:52:03;;;;;;;2.78;1.75;;;9.10;99.90;;;;;;5026226;28;20025;-83
2022/09/24 12:54:34;;;;;;;4.13;2.35;;;9.00;99.90;;;;;;5033931;28;20029;-81
2022/09/24 12:57:21;;;;;;;2.10;1.60;;;9.00;99.90;;;;;;5020726;28;20021;-88
2022/09/24 12:59:57;;;;;;;3.43;1.90;;;9.00;99.90;;;;;;5005223;28;20032;-85
2022/09/24 13:02:31;;;;;;;2.97;2.20;;;9.00;99.90;;;;;;5032494;28;20262;-85
2022/09/24 13:05:00;;;;;;;4.55;1.88;;;9.00;99.90;;;;;;5020445;28;20033;-86
2022/09/24 13:07:39;;;;;;;3.60;2.10;;;8.90;99.90;;;;;;4996844;28;20036;-84
2022/09/24 13:10:17;;;;;;;5.10;2.45;;;8.90;99.90;;;;;;5029787;28;20125;-82
2022/09/24 13:12:44;;;;;;;3.72;1.92;;;9.00;99.90;;;;;;5019552;28;20104;-84
2022/09/24 13:15:35;;;;;;;3.47;2.67;;;8.90;99.90;;;;;;5026820;28;20104;-83
2022/09/24 13:18:10;;;;;;;4.07;2.70;;;8.90;99.90;;;;;;5016461;28;20040;-83
2022/09/24 13:20:40;;;;;;;4.90;2.15;;;8.90;99.90;;;;;;5019049;28;20108;-84
2022/09/24 13:23:18;;;;;;;5.20;2.15;;;8.90;99.90;;;;;;5032001;28;20479;-82
2022/09/24 13:26:05;;;;;;;2.63;1.80;;;9.00;99.90;;;;;;5013022;28;20106;-82
2022/09/24 13:28:32;;;;;;;5.00;2.10;;;9.00;99.90;;;;;;5014538;28;20596;-84
2022/09/24 13:31:22;;;;;;;4.00;1.95;;;8.90;99.90;;;;;;5015536;28;20435;-85
2022/09/24 13:34:14;;;;;;;2.35;1.50;;;8.90;99.90;;;;;;5025063;28;20055;-86
2022/09/24 13:36:49;;;;;;;2.97;1.65;;;8.90;99.90;;;;;;5015131;28;20026;-85
2022/09/24 13:39:23;;;;;;;2.97;2.55;;;8.90;99.90;;;;;;5035435;28;20025;-84
2022/09/24 13:42:13;;;;;;;3.92;2.40;;;8.90;99.90;;;;;;5034405;28;20068;-85